Darstellungsparameter: Aktuell verwendete Einstellungen:
Skalierung der Graphiken ... ?
xyx+y,   Skalierungsfaktor:      Skalierung: Modus: x, Faktor: 1
Darstellungszeitraum ... ?
Vom - - bis: - -   Zeitraum: 31.07.2021 - 31.07.2021
Min/Max/Avg-Anzeige ... ?
Zeige MMA aktuell
Zeige MMA Monat
Zeige MMA alles
Zeige --A aktuell
Zeige --A Monat
Zeige --A alles
Keine MMA-Anzeige
MMA:
Average (ber die Originaldaten)
MMA-Basis: 31.07.2021 - 31.07.2021
Quicknavigation für Darstellung... ?
Tage:      1T, 2T, 3T, 5T -1T -2T -3T -5T +1T +2T +3T +5T
Wochen: 1W, 2W, 3W -1W -2W -3W +1W +2W +3W
Monate: 1M, 3M, 6M -1M -3M -6M +1M +3M +6M
Jahre:    1J, 3J, 5J, 10J -1J -3J -5J -10J +1J +3J +5J +10J
Nutze für die Darstellung ... ?
Originaldaten oder Mittelwerte auf ...
Stundenbasis Tagesbasis Wochenbasis
Monatsbasis Jahresbasis      Datenbasis: Original-Daten
Darstellen als:
Statistik (Auto) Statistik J:M      Darstellung:

Der gewünschte Datumsbereich war nicht gültig/verfügbar und wurde korrigiert....
Das angegebene Enddatum (28.06.2025 23:59:59) liegt in der Zukunft.
Das angegebene Startdatum (28.06.2025 00:00:00) liegt in der Zukunft.


Zur Graphik,    zurück zur Übersicht aller Sensoren.
 
Tabellarische Datenbersicht: ?
 
Sensor: Nr:Datum:Temp:Abs-Feuchte:Windchill:Wind:
Aussen-T/F 1 31-07-2021 02:00:00 16.1 C 11.1 g/m*3 16.1 C 4.8 km/h
2 31-07-2021 02:05:00 16.1 C 11.1 g/m*3 16.1 C 1.6 km/h
3 31-07-2021 02:10:00 16.1 C 10.83 g/m*3 16.1 C 4.8 km/h
4 31-07-2021 02:15:00 16.2 C 11.03 g/m*3 16.2 C 0 km/h
5 31-07-2021 02:20:00 16.2 C 10.89 g/m*3 16.2 C 0 km/h
6 31-07-2021 02:25:00 16.2 C 10.89 g/m*3 16.2 C 3.2 km/h
7 31-07-2021 02:30:00 16.2 C 10.76 g/m*3 16.2 C 9.7 km/h
8 31-07-2021 02:35:00 16.2 C 10.62 g/m*3 16.2 C 9.7 km/h
9 31-07-2021 02:40:00 16.4 C 10.47 g/m*3 16.4 C 11.3 km/h
10 31-07-2021 02:45:00 16.7 C 10.37 g/m*3 16.7 C 14.5 km/h
11 31-07-2021 02:50:00 17.2 C 10.69 g/m*3 17.2 C 17.7 km/h
12 31-07-2021 02:55:00 17.3 C 10.61 g/m*3 17.3 C 8.1 km/h
13 31-07-2021 03:00:00 17.3 C 10.61 g/m*3 17.3 C 9.7 km/h
14 31-07-2021 03:05:00 17.4 C 10.52 g/m*3 17.4 C 9.7 km/h
15 31-07-2021 03:10:00 17.4 C 10.23 g/m*3 17.4 C 11.3 km/h
16 31-07-2021 03:15:00 17.5 C 10.29 g/m*3 17.5 C 14.5 km/h
17 31-07-2021 03:20:00 17.6 C 10.35 g/m*3 17.6 C 14.5 km/h
18 31-07-2021 03:25:00 17.5 C 10.44 g/m*3 17.5 C 4.8 km/h
19 31-07-2021 03:30:00 17.4 C 10.37 g/m*3 17.4 C 6.4 km/h
20 31-07-2021 03:35:00 17.3 C 10.46 g/m*3 17.3 C 8.1 km/h
21 31-07-2021 03:40:00 17.2 C 10.54 g/m*3 17.2 C 4.8 km/h
22 31-07-2021 03:45:00 17 C 10.27 g/m*3 17 C 9.7 km/h
23 31-07-2021 03:50:00 16.9 C 10.36 g/m*3 16.9 C 9.7 km/h
24 31-07-2021 03:55:00 16.8 C 10.44 g/m*3 16.8 C 6.4 km/h
25 31-07-2021 04:00:00 16.7 C 10.37 g/m*3 16.7 C 6.4 km/h
Sensor: Nr:Datum:Temp:Abs-Feuchte:Windchill:Wind:
Aussen-T/F 26 31-07-2021 04:05:00 16.7 C 10.52 g/m*3 16.7 C 1.6 km/h
27 31-07-2021 04:10:00 16.6 C 10.45 g/m*3 16.6 C 6.4 km/h
28 31-07-2021 04:15:00 16.4 C 10.33 g/m*3 16.4 C 9.7 km/h
29 31-07-2021 04:20:00 16.3 C 10.27 g/m*3 16.3 C 11.3 km/h
30 31-07-2021 04:25:00 16.3 C 10.27 g/m*3 16.3 C 12.9 km/h
31 31-07-2021 04:30:00 16.4 C 10.19 g/m*3 16.4 C 11.3 km/h
32 31-07-2021 04:35:00 16.4 C 10.19 g/m*3 16.4 C 9.7 km/h
33 31-07-2021 04:40:00 16.4 C 10.19 g/m*3 16.4 C 11.3 km/h
34 31-07-2021 04:45:00 16.4 C 10.19 g/m*3 16.4 C 19.3 km/h
35 31-07-2021 04:50:00 16.3 C 10.13 g/m*3 16.3 C 9.7 km/h
36 31-07-2021 04:55:00 16.3 C 10.13 g/m*3 16.3 C 6.4 km/h
37 31-07-2021 05:00:00 16.3 C 10.13 g/m*3 16.3 C 6.4 km/h
38 31-07-2021 05:05:00 16.2 C 10.2 g/m*3 16.2 C 3.2 km/h
39 31-07-2021 05:10:00 16.1 C 10.28 g/m*3 16.1 C 6.4 km/h
40 31-07-2021 05:15:00 15.9 C 10.16 g/m*3 15.9 C 6.4 km/h
41 31-07-2021 05:20:00 15.8 C 10.23 g/m*3 15.8 C 4.8 km/h
42 31-07-2021 05:25:00 15.8 C 10.23 g/m*3 15.8 C 0 km/h
43 31-07-2021 05:30:00 15.6 C 10.24 g/m*3 15.6 C 3.2 km/h
44 31-07-2021 05:35:00 15.4 C 10.25 g/m*3 15.4 C 3.2 km/h
45 31-07-2021 05:40:00 15.3 C 10.19 g/m*3 15.3 C 3.2 km/h
46 31-07-2021 05:45:00 15.1 C 10.19 g/m*3 15.1 C 1.6 km/h
47 31-07-2021 05:50:00 14.9 C 10.2 g/m*3 14.9 C 3.2 km/h
48 31-07-2021 05:55:00 14.8 C 10.13 g/m*3 14.8 C 8.1 km/h
49 31-07-2021 06:00:00 14.7 C 10.07 g/m*3 14.7 C 9.7 km/h
50 31-07-2021 06:05:00 14.9 C 10.2 g/m*3 14.9 C 16.1 km/h
Sensor: Nr:Datum:Temp:Abs-Feuchte:Windchill:Wind:
Aussen-T/F 51 31-07-2021 06:10:00 15.1 C 10.19 g/m*3 15.1 C 8.1 km/h
52 31-07-2021 06:15:00 15.2 C 10.25 g/m*3 15.2 C 6.4 km/h
53 31-07-2021 06:20:00 15.3 C 10.32 g/m*3 15.3 C 9.7 km/h
54 31-07-2021 06:25:00 15.3 C 10.32 g/m*3 15.3 C 6.4 km/h
55 31-07-2021 06:30:00 15.4 C 10.25 g/m*3 15.4 C 9.7 km/h
56 31-07-2021 06:35:00 15.4 C 10.25 g/m*3 15.4 C 12.9 km/h
57 31-07-2021 06:40:00 15.5 C 10.31 g/m*3 15.5 C 9.7 km/h
58 31-07-2021 06:45:00 15.5 C 10.44 g/m*3 15.5 C 4.8 km/h
59 31-07-2021 06:50:00 15.4 C 10.38 g/m*3 15.4 C 11.3 km/h
60 31-07-2021 06:55:00 15.4 C 10.51 g/m*3 15.4 C 0 km/h
61 31-07-2021 07:00:00 15.3 C 10.45 g/m*3 15.3 C 9.7 km/h
62 31-07-2021 07:05:00 15.3 C 10.45 g/m*3 15.3 C 6.4 km/h
63 31-07-2021 07:10:00 15.3 C 10.45 g/m*3 15.3 C 11.3 km/h
64 31-07-2021 07:15:00 15.3 C 10.45 g/m*3 15.3 C 9.7 km/h
65 31-07-2021 07:20:00 15.3 C 10.45 g/m*3 15.3 C 6.4 km/h
66 31-07-2021 07:25:00 15.3 C 10.45 g/m*3 15.3 C 11.3 km/h
67 31-07-2021 07:30:00 15.4 C 10.38 g/m*3 15.4 C 11.3 km/h
68 31-07-2021 07:35:00 15.5 C 10.44 g/m*3 15.5 C 14.5 km/h
69 31-07-2021 07:40:00 15.6 C 10.51 g/m*3 15.6 C 8.1 km/h
70 31-07-2021 07:45:00 15.6 C 10.37 g/m*3 15.6 C 16.1 km/h
71 31-07-2021 07:50:00 15.7 C 10.44 g/m*3 15.7 C 12.9 km/h
72 31-07-2021 07:55:00 15.8 C 10.5 g/m*3 15.8 C 19.3 km/h
73 31-07-2021 08:00:00 15.8 C 10.5 g/m*3 15.8 C 16.1 km/h
74 31-07-2021 08:05:00 15.8 C 10.36 g/m*3 15.8 C 20.9 km/h
75 31-07-2021 08:10:00 15.8 C 10.5 g/m*3 15.8 C 20.9 km/h
Sensor: Nr:Datum:Temp:Abs-Feuchte:Windchill:Wind:
Aussen-T/F 76 31-07-2021 08:15:00 15.8 C 10.5 g/m*3 15.8 C 17.7 km/h
77 31-07-2021 08:20:00 15.8 C 10.5 g/m*3 15.8 C 12.9 km/h
78 31-07-2021 08:25:00 15.8 C 10.5 g/m*3 15.8 C 12.9 km/h
79 31-07-2021 08:30:00 16 C 10.63 g/m*3 16 C 20.9 km/h
80 31-07-2021 08:35:00 16.2 C 10.62 g/m*3 16.2 C 19.3 km/h
81 31-07-2021 08:40:00 16.3 C 10.54 g/m*3 16.3 C 22.5 km/h
82 31-07-2021 08:45:00 16.3 C 10.54 g/m*3 16.3 C 17.7 km/h
83 31-07-2021 08:50:00 16.4 C 10.61 g/m*3 16.4 C 24.1 km/h
84 31-07-2021 08:55:00 16.6 C 10.74 g/m*3 16.6 C 16.1 km/h
85 31-07-2021 09:00:00 16.5 C 10.67 g/m*3 16.5 C 19.3 km/h
86 31-07-2021 09:05:00 16.4 C 10.61 g/m*3 16.4 C 22.5 km/h
87 31-07-2021 09:10:00 16.4 C 10.61 g/m*3 16.4 C 14.5 km/h
88 31-07-2021 09:15:00 16.4 C 10.61 g/m*3 16.4 C 16.1 km/h
89 31-07-2021 09:20:00 16.4 C 10.61 g/m*3 16.4 C 14.5 km/h
90 31-07-2021 09:25:00 16.5 C 10.67 g/m*3 16.5 C 20.9 km/h
91 31-07-2021 09:30:00 16.6 C 10.74 g/m*3 16.6 C 17.7 km/h
92 31-07-2021 09:35:00 16.7 C 10.66 g/m*3 16.7 C 20.9 km/h
93 31-07-2021 09:40:00 16.7 C 10.66 g/m*3 16.7 C 16.1 km/h
94 31-07-2021 09:45:00 16.8 C 10.87 g/m*3 16.8 C 19.3 km/h
95 31-07-2021 09:50:00 16.8 C 10.72 g/m*3 16.8 C 16.1 km/h
96 31-07-2021 09:55:00 16.9 C 10.79 g/m*3 16.9 C 17.7 km/h
97 31-07-2021 10:00:00 17.1 C 10.92 g/m*3 17.1 C 12.9 km/h
98 31-07-2021 10:05:00 17.2 C 10.98 g/m*3 17.2 C 14.5 km/h
99 31-07-2021 10:10:00 17.3 C 11.05 g/m*3 17.3 C 14.5 km/h
100 31-07-2021 10:15:00 17.4 C 11.12 g/m*3 17.4 C 17.7 km/h
Sensor: Nr:Datum:Temp:Abs-Feuchte:Windchill:Wind:
Aussen-T/F 101 31-07-2021 10:20:00 17.5 C 11.03 g/m*3 17.5 C 14.5 km/h
102 31-07-2021 10:25:00 17.6 C 10.95 g/m*3 17.6 C 17.7 km/h
103 31-07-2021 10:30:00 17.8 C 11.08 g/m*3 17.8 C 20.9 km/h
104 31-07-2021 10:35:00 17.9 C 10.84 g/m*3 17.9 C 14.5 km/h
105 31-07-2021 10:40:00 18.1 C 11.12 g/m*3 18.1 C 12.9 km/h
106 31-07-2021 10:45:00 18.3 C 11.26 g/m*3 18.3 C 14.5 km/h
107 31-07-2021 10:50:00 18.5 C 11.23 g/m*3 18.5 C 16.1 km/h
108 31-07-2021 10:55:00 18.7 C 11.21 g/m*3 18.7 C 22.5 km/h
109 31-07-2021 11:00:00 18.8 C 11.11 g/m*3 18.8 C 16.1 km/h
110 31-07-2021 11:05:00 18.8 C 11.11 g/m*3 18.8 C 17.7 km/h
111 31-07-2021 11:10:00 18.9 C 11.34 g/m*3 18.9 C 19.3 km/h
112 31-07-2021 11:15:00 19 C 11.24 g/m*3 19 C 14.5 km/h
113 31-07-2021 11:20:00 19.1 C 11.47 g/m*3 19.1 C 17.7 km/h
114 31-07-2021 11:25:00 19 C 11.24 g/m*3 19 C 19.3 km/h
115 31-07-2021 11:30:00 19.1 C 11.47 g/m*3 19.1 C 14.5 km/h
116 31-07-2021 11:35:00 19.1 C 11.31 g/m*3 19.1 C 17.7 km/h
117 31-07-2021 11:40:00 19.1 C 11.15 g/m*3 19.1 C 19.3 km/h
118 31-07-2021 11:45:00 19.3 C 11.11 g/m*3 19.3 C 20.9 km/h
119 31-07-2021 11:50:00 19.4 C 11.18 g/m*3 19.4 C 16.1 km/h
120 31-07-2021 11:55:00 19.5 C 11.24 g/m*3 19.5 C 19.3 km/h
121 31-07-2021 12:00:00 19.7 C 11.38 g/m*3 19.7 C 14.5 km/h
122 31-07-2021 12:05:00 19.8 C 11.27 g/m*3 19.8 C 14.5 km/h
123 31-07-2021 12:10:00 19.8 C 11.27 g/m*3 19.8 C 24.1 km/h
124 31-07-2021 12:15:00 19.8 C 11.44 g/m*3 19.8 C 17.7 km/h
125 31-07-2021 12:20:00 19.8 C 11.27 g/m*3 19.8 C 14.5 km/h
Sensor: Nr:Datum:Temp:Abs-Feuchte:Windchill:Wind:
Aussen-T/F 126 31-07-2021 12:25:00 19.9 C 11.17 g/m*3 19.9 C 17.7 km/h
127 31-07-2021 12:30:00 19.9 C 11.34 g/m*3 19.9 C 20.9 km/h
128 31-07-2021 12:35:00 19.9 C 11.17 g/m*3 19.9 C 20.9 km/h
129 31-07-2021 12:40:00 19.9 C 11.34 g/m*3 19.9 C 17.7 km/h
130 31-07-2021 12:45:00 20 C 11.58 g/m*3 20 C 14.5 km/h
131 31-07-2021 12:50:00 20.2 C 11.54 g/m*3 20.2 C 19.3 km/h
132 31-07-2021 12:55:00 20.4 C 11.85 g/m*3 20.4 C 16.1 km/h
133 31-07-2021 13:00:00 20.6 C 11.63 g/m*3 20.6 C 16.1 km/h
134 31-07-2021 13:05:00 20.7 C 11.34 g/m*3 20.7 C 19.3 km/h
135 31-07-2021 13:10:00 20.8 C 11.41 g/m*3 20.8 C 22.5 km/h
136 31-07-2021 13:15:00 20.8 C 11.41 g/m*3 20.8 C 19.3 km/h
137 31-07-2021 13:20:00 20.8 C 11.41 g/m*3 20.8 C 17.7 km/h
138 31-07-2021 13:25:00 20.7 C 10.98 g/m*3 20.7 C 20.9 km/h
139 31-07-2021 13:30:00 20.7 C 11.52 g/m*3 20.7 C 11.3 km/h
140 31-07-2021 13:35:00 20.7 C 11.52 g/m*3 20.7 C 11.3 km/h
141 31-07-2021 13:40:00 20.7 C 11.52 g/m*3 20.7 C 12.9 km/h
142 31-07-2021 13:45:00 20.6 C 11.45 g/m*3 20.6 C 12.9 km/h
143 31-07-2021 13:50:00 20.7 C 11.34 g/m*3 20.7 C 14.5 km/h
144 31-07-2021 13:55:00 20.7 C 10.98 g/m*3 20.7 C 20.9 km/h
145 31-07-2021 14:00:00 20.8 C 11.05 g/m*3 20.8 C 17.7 km/h
146 31-07-2021 14:05:00 20.8 C 11.23 g/m*3 20.8 C 17.7 km/h
147 31-07-2021 14:10:00 21 C 11.72 g/m*3 21 C 19.3 km/h
148 31-07-2021 14:15:00 21.1 C 11.42 g/m*3 21.1 C 16.1 km/h
149 31-07-2021 14:20:00 21.1 C 11.06 g/m*3 21.1 C 19.3 km/h
150 31-07-2021 14:25:00 21.1 C 11.42 g/m*3 21.1 C 16.1 km/h
Sensor: Nr:Datum:Temp:Abs-Feuchte:Windchill:Wind:
Aussen-T/F 151 31-07-2021 14:30:00 21.2 C 11.49 g/m*3 21.2 C 11.3 km/h
152 31-07-2021 14:35:00 21.3 C 11.37 g/m*3 21.3 C 16.1 km/h
153 31-07-2021 14:40:00 21.4 C 11.25 g/m*3 21.4 C 12.9 km/h
154 31-07-2021 14:45:00 21.4 C 11.06 g/m*3 21.4 C 16.1 km/h
155 31-07-2021 14:50:00 21.4 C 11.25 g/m*3 21.4 C 17.7 km/h
156 31-07-2021 14:55:00 21.4 C 11.25 g/m*3 21.4 C 16.1 km/h
157 31-07-2021 15:00:00 21.3 C 11.37 g/m*3 21.3 C 17.7 km/h
158 31-07-2021 15:05:00 21.4 C 11.62 g/m*3 21.4 C 16.1 km/h
159 31-07-2021 15:10:00 21.6 C 11.76 g/m*3 21.6 C 14.5 km/h
160 31-07-2021 15:15:00 21.6 C 11.38 g/m*3 21.6 C 16.1 km/h
161 31-07-2021 15:20:00 21.4 C 10.87 g/m*3 21.4 C 16.1 km/h
162 31-07-2021 15:25:00 21.3 C 11.18 g/m*3 21.3 C 17.7 km/h
163 31-07-2021 15:30:00 21.3 C 11.74 g/m*3 21.3 C 8.1 km/h
164 31-07-2021 15:35:00 21.3 C 11.37 g/m*3 21.3 C 11.3 km/h
165 31-07-2021 15:40:00 21.3 C 11.74 g/m*3 21.3 C 16.1 km/h
166 31-07-2021 15:45:00 21.3 C 11.37 g/m*3 21.3 C 16.1 km/h
167 31-07-2021 15:50:00 21.4 C 11.44 g/m*3 21.4 C 14.5 km/h
168 31-07-2021 15:55:00 21.8 C 11.9 g/m*3 21.8 C 12.9 km/h
169 31-07-2021 16:00:00 22.4 C 11.32 g/m*3 22.4 C 22.5 km/h
170 31-07-2021 16:05:00 22.5 C 11.58 g/m*3 22.5 C 12.9 km/h
171 31-07-2021 16:10:00 22.4 C 11.12 g/m*3 22.4 C 16.1 km/h
172 31-07-2021 16:15:00 22.3 C 11.26 g/m*3 22.3 C 12.9 km/h
173 31-07-2021 16:20:00 22.3 C 11.45 g/m*3 22.3 C 8.1 km/h
174 31-07-2021 16:25:00 22.3 C 11.26 g/m*3 22.3 C 9.7 km/h
175 31-07-2021 16:30:00 22.1 C 11.32 g/m*3 22.1 C 9.7 km/h
Sensor: Nr:Datum:Temp:Abs-Feuchte:Windchill:Wind:
Aussen-T/F 176 31-07-2021 16:35:00 21.9 C 11.58 g/m*3 21.9 C 9.7 km/h
177 31-07-2021 16:40:00 21.8 C 11.32 g/m*3 21.8 C 9.7 km/h
178 31-07-2021 16:45:00 21.7 C 11.45 g/m*3 21.7 C 11.3 km/h
179 31-07-2021 16:50:00 21.7 C 11.25 g/m*3 21.7 C 12.9 km/h
180 31-07-2021 16:55:00 21.7 C 11.25 g/m*3 21.7 C 8.1 km/h
181 31-07-2021 17:00:00 21.7 C 11.64 g/m*3 21.7 C 6.4 km/h
182 31-07-2021 17:05:00 21.6 C 11.76 g/m*3 21.6 C 4.8 km/h
183 31-07-2021 17:10:00 21.4 C 11.62 g/m*3 21.4 C 8.1 km/h
184 31-07-2021 17:15:00 21.3 C 11.74 g/m*3 21.3 C 6.4 km/h
185 31-07-2021 17:20:00 21.4 C 12.19 g/m*3 21.4 C 11.3 km/h
186 31-07-2021 17:25:00 21.4 C 12 g/m*3 21.4 C 4.8 km/h
187 31-07-2021 17:30:00 21.4 C 12 g/m*3 21.4 C 6.4 km/h
188 31-07-2021 17:35:00 22.1 C 12.1 g/m*3 22.1 C 16.1 km/h
189 31-07-2021 17:40:00 23 C 11.72 g/m*3 23 C 12.9 km/h
190 31-07-2021 17:45:00 23.4 C 11.78 g/m*3 23.4 C 12.9 km/h
191 31-07-2021 17:50:00 21.8 C 11.51 g/m*3 21.8 C 11.3 km/h
192 31-07-2021 17:55:00 21.7 C 11.83 g/m*3 21.7 C 11.3 km/h
193 31-07-2021 18:20:00 21.6 C 12.33 g/m*3 21.6 C 9.7 km/h
194 31-07-2021 18:25:00 21.5 C 12.82 g/m*3 21.5 C 4.8 km/h
195 31-07-2021 18:30:00 21.3 C 12.49 g/m*3 21.3 C 6.4 km/h
196 31-07-2021 18:35:00 21.1 C 12.53 g/m*3 21.1 C 1.6 km/h
197 31-07-2021 18:40:00 21 C 12.46 g/m*3 21 C 6.4 km/h
198 31-07-2021 18:45:00 20.9 C 12.02 g/m*3 20.9 C 4.8 km/h
199 31-07-2021 18:50:00 20.9 C 11.29 g/m*3 20.9 C 8.1 km/h
200 31-07-2021 18:55:00 20.9 C 11.66 g/m*3 20.9 C 4.8 km/h
Sensor: Nr:Datum:Temp:Abs-Feuchte:Windchill:Wind:
Aussen-T/F 201 31-07-2021 19:00:00 21.1 C 11.24 g/m*3 21.1 C 6.4 km/h
202 31-07-2021 19:05:00 21.1 C 11.42 g/m*3 21.1 C 9.7 km/h
203 31-07-2021 19:10:00 21.2 C 11.68 g/m*3 21.2 C 6.4 km/h
204 31-07-2021 19:15:00 21.2 C 12.05 g/m*3 21.2 C 4.8 km/h
205 31-07-2021 19:20:00 21.3 C 13.23 g/m*3 21.3 C 3.2 km/h
206 31-07-2021 19:25:00 21.3 C 13.61 g/m*3 21.3 C 0 km/h
207 31-07-2021 19:30:00 21.2 C 13.71 g/m*3 21.2 C 0 km/h
208 31-07-2021 19:35:00 21.1 C 13.45 g/m*3 21.1 C 1.6 km/h
209 31-07-2021 19:40:00 20.8 C 12.86 g/m*3 20.8 C 0 km/h
210 31-07-2021 19:45:00 20.6 C 13.07 g/m*3 20.6 C 0 km/h
211 31-07-2021 19:50:00 20.3 C 12.84 g/m*3 20.3 C 3.2 km/h

Legende:
   Min
   Max


Maximal/Minimal-Werte vom 31.07.2021 - 31.07.2021

Sensor Min Max Avg
Temp
(Aussen-T/F)
14.7 °C
31-07-2021  06:00:00
23.4 °C
31-07-2021  17:45:00
18.57 °C
Abs-Feuchte
(Aussen-T/F)
10.07 g/m*3
31-07-2021  06:00:00
13.71 g/m*3
31-07-2021  19:30:00
11 g/m*3
Windchill
(Aussen-T/F)
14.7 C
31-07-2021  06:00:00
23.4 C
31-07-2021  17:45:00
18.48 C

Die Daten stammen von einer Davis Vantage Pro 2 Wetter-Station und werden unter Linux mit der Software wview2wettercgi und aufbereitet. Alle Angaben erfolgen ohne Gewähr für ihre Vollständigkeit oder Richtigkeit.
Kontakt: Rainer Krienke krienke@uni-koblenz.de . Meine Webseiten an der Uni Koblenz oder privat.
Version: $Revision: 0.78 $